Time;durP1;ratioP1;P1;durP2;ratioP2;P2;SDS_P1;SDS_P2;PMS_P1;PMS_P2;Temp;Humidity;BMP_temperature;BMP_pressure;BME280_temperature;BME280_humidity;BME280_pressure;Samples;Min_cycle;Max_cycle;Signal;HPM_P1;HPM_P2
2023/06/04 00:02:01;;;;;;;0.20;0.20;;;;;;;;;;5095327;28;20134;-45
2023/06/04 00:04:27;;;;;;;0.20;0.20;;;;;;;;;;5095661;28;20046;-45
2023/06/04 00:06:54;;;;;;;0.20;0.20;;;;;;;;;;5109241;28;20051;-44
2023/06/04 00:09:19;;;;;;;0.10;0.10;;;;;;;;;;5116169;28;20536;-45
2023/06/04 00:11:45;;;;;;;0.20;0.20;;;;;;;;;;5115309;28;20724;-45
2023/06/04 00:14:11;;;;;;;0.20;0.20;;;;;;;;;;5115494;28;20047;-45
2023/06/04 00:16:37;;;;;;;0.20;0.20;;;;;;;;;;5115873;28;20050;-45
2023/06/04 00:19:02;;;;;;;0.20;0.20;;;;;;;;;;5116161;28;20437;-44
2023/06/04 00:21:28;;;;;;;0.20;0.20;;;;;;;;;;5115919;28;20553;-44
2023/06/04 00:23:54;;;;;;;0.20;0.20;;;;;;;;;;5097521;28;20051;-45
2023/06/04 00:26:20;;;;;;;0.20;0.20;;;;;;;;;;5115762;28;20254;-45
2023/06/04 00:28:45;;;;;;;0.20;0.20;;;;;;;;;;5115818;27;20477;-46
2023/06/04 00:31:12;;;;;;;0.20;0.20;;;;;;;;;;5088103;27;20101;-45
2023/06/04 00:33:39;;;;;;;0.20;0.20;;;;;;;;;;5115985;28;20035;-44
2023/06/04 00:36:05;;;;;;;0.20;0.20;;;;;;;;;;5115224;28;20051;-45
2023/06/04 00:38:30;;;;;;;0.20;0.20;;;;;;;;;;5114910;28;20054;-44
2023/06/04 00:40:56;;;;;;;0.20;0.20;;;;;;;;;;5115723;28;20043;-45
2023/06/04 00:43:25;;;;;;;0.13;0.13;;;;;;;;;;5115452;28;20236;-45
2023/06/04 00:45:51;;;;;;;0.20;0.20;;;;;;;;;;5115213;28;20399;-45
2023/06/04 00:48:17;;;;;;;0.20;0.20;;;;;;;;;;5097253;28;20434;-45
2023/06/04 00:50:43;;;;;;;0.22;0.22;;;;;;;;;;5115330;28;20765;-45
2023/06/04 00:53:09;;;;;;;0.20;0.20;;;;;;;;;;5115811;27;20043;-44
2023/06/04 00:55:34;;;;;;;0.20;0.20;;;;;;;;;;5099947;28;20047;-44
2023/06/04 00:58:00;;;;;;;0.20;0.20;;;;;;;;;;5118984;27;20050;-45
2023/06/04 01:00:26;;;;;;;0.20;0.20;;;;;;;;;;5118702;28;20086;-45
2023/06/04 01:02:53;;;;;;;0.20;0.20;;;;;;;;;;5119217;28;20047;-44
2023/06/04 01:05:25;;;;;;;0.20;0.20;;;;;;;;;;5119000;28;20133;-46
2023/06/04 01:07:50;;;;;;;0.10;0.10;;;;;;;;;;5118094;28;20047;-45
2023/06/04 01:10:16;;;;;;;0.20;0.20;;;;;;;;;;5118180;28;20066;-44
2023/06/04 01:12:42;;;;;;;0.10;0.10;;;;;;;;;;5118363;28;20157;-47
2023/06/04 01:15:08;;;;;;;0.20;0.20;;;;;;;;;;5118691;28;20051;-46
2023/06/04 01:17:37;;;;;;;0.20;0.20;;;;;;;;;;5100172;28;20405;-44
2023/06/04 01:20:22;;;;;;;0.20;0.20;;;;;;;;;;5099899;28;20110;-45
2023/06/04 01:25:34;;;;;;;0.20;0.20;;;;;;;;;;5175816;27;20201;-42
2023/06/04 01:28:00;;;;;;;0.20;0.20;;;;;;;;;;5137103;27;20042;-42
2023/06/04 01:30:28;;;;;;;0.20;0.20;;;;;;;;;;5153767;27;20046;-43
2023/06/04 01:32:54;;;;;;;0.10;0.10;;;;;;;;;;5139350;27;20102;-43
2023/06/04 01:35:20;;;;;;;0.20;0.20;;;;;;;;;;5133236;27;20058;-45
2023/06/04 01:37:46;;;;;;;0.20;0.20;;;;;;;;;;5132278;27;20123;-44
2023/06/04 01:40:11;;;;;;;0.20;0.20;;;;;;;;;;5132055;27;20058;-46
2023/06/04 01:42:37;;;;;;;0.20;0.20;;;;;;;;;;5133032;27;20051;-44
2023/06/04 01:45:03;;;;;;;0.20;0.20;;;;;;;;;;5133127;27;20134;-46
2023/06/04 01:47:28;;;;;;;0.20;0.20;;;;;;;;;;5137198;27;20094;-44
2023/06/04 01:49:54;;;;;;;0.20;0.20;;;;;;;;;;5148735;27;20399;-45
2023/06/04 01:52:21;;;;;;;0.20;0.20;;;;;;;;;;5132809;27;20106;-44
2023/06/04 01:54:48;;;;;;;0.10;0.10;;;;;;;;;;5133479;27;20639;-45
2023/06/04 01:57:14;;;;;;;0.20;0.20;;;;;;;;;;5142777;27;20045;-46
2023/06/04 01:59:41;;;;;;;0.20;0.20;;;;;;;;;;5152961;27;20050;-44
2023/06/04 02:02:06;;;;;;;0.20;0.20;;;;;;;;;;5153242;27;20048;-45
2023/06/04 02:04:32;;;;;;;0.20;0.20;;;;;;;;;;5153433;27;20559;-46
2023/06/04 02:06:59;;;;;;;0.10;0.10;;;;;;;;;;5153261;27;20043;-45
2023/06/04 02:09:25;;;;;;;0.10;0.10;;;;;;;;;;5153173;27;20486;-44
2023/06/04 02:11:51;;;;;;;0.17;0.17;;;;;;;;;;5152179;27;20424;-44
2023/06/04 02:14:16;;;;;;;0.20;0.20;;;;;;;;;;5153198;27;20486;-44
2023/06/04 02:16:42;;;;;;;0.20;0.20;;;;;;;;;;5153472;27;20371;-44
2023/06/04 02:19:08;;;;;;;0.10;0.10;;;;;;;;;;5153616;27;20054;-46
2023/06/04 02:21:33;;;;;;;0.10;0.10;;;;;;;;;;5150852;27;20046;-47
2023/06/04 02:23:59;;;;;;;0.20;0.20;;;;;;;;;;5133071;27;20152;-46
2023/06/04 02:26:24;;;;;;;0.20;0.20;;;;;;;;;;5133140;27;20193;-45
2023/06/04 02:28:50;;;;;;;0.20;0.20;;;;;;;;;;5132818;27;20047;-46
2023/06/04 02:31:16;;;;;;;0.20;0.20;;;;;;;;;;5112754;27;20050;-45
2023/06/04 02:33:41;;;;;;;0.10;0.10;;;;;;;;;;5112050;28;20434;-48
2023/06/04 02:36:08;;;;;;;0.20;0.20;;;;;;;;;;5102891;28;20372;-46
2023/06/04 02:38:34;;;;;;;0.10;0.10;;;;;;;;;;5097737;28;20047;-44
2023/06/04 02:41:00;;;;;;;0.20;0.20;;;;;;;;;;5111604;28;20086;-45
2023/06/04 02:43:25;;;;;;;0.20;0.20;;;;;;;;;;5118326;28;20047;-46
2023/06/04 02:45:51;;;;;;;0.20;0.20;;;;;;;;;;5118362;28;20051;-46
2023/06/04 02:48:16;;;;;;;0.20;0.20;;;;;;;;;;5119260;28;20043;-47
2023/06/04 02:50:42;;;;;;;0.20;0.20;;;;;;;;;;5117639;28;20418;-46
2023/06/04 02:53:08;;;;;;;0.10;0.10;;;;;;;;;;5118426;28;20043;-46
2023/06/04 02:55:33;;;;;;;0.20;0.20;;;;;;;;;;5119332;28;20541;-49
2023/06/04 02:58:00;;;;;;;0.20;0.20;;;;;;;;;;5118915;27;20047;-47
2023/06/04 03:00:26;;;;;;;0.10;0.10;;;;;;;;;;5118216;28;21037;-46
2023/06/04 03:02:51;;;;;;;0.20;0.20;;;;;;;;;;5118475;28;20494;-47
2023/06/04 03:05:17;;;;;;;0.20;0.20;;;;;;;;;;5118353;28;20053;-47
2023/06/04 03:07:44;;;;;;;0.20;0.20;;;;;;;;;;5118684;28;20448;-47
2023/06/04 03:10:11;;;;;;;0.10;0.10;;;;;;;;;;5118177;28;20074;-47
2023/06/04 03:12:36;;;;;;;0.20;0.20;;;;;;;;;;5099389;28;20418;-48
2023/06/04 03:15:03;;;;;;;0.20;0.20;;;;;;;;;;5118366;28;20506;-47
2023/06/04 03:17:28;;;;;;;0.20;0.20;;;;;;;;;;5118188;28;20484;-46
2023/06/04 03:19:55;;;;;;;0.10;0.10;;;;;;;;;;5118068;28;20357;-48
2023/06/04 03:22:21;;;;;;;0.20;0.20;;;;;;;;;;5117701;27;20479;-47
2023/06/04 03:24:47;;;;;;;0.20;0.20;;;;;;;;;;5117820;28;20046;-46
2023/06/04 03:27:12;;;;;;;0.10;0.10;;;;;;;;;;5117940;28;20057;-48
2023/06/04 03:29:38;;;;;;;0.20;0.20;;;;;;;;;;5117696;28;20043;-47
2023/06/04 03:32:04;;;;;;;0.10;0.10;;;;;;;;;;5117035;27;20047;-48
2023/06/04 03:34:32;;;;;;;0.10;0.10;;;;;;;;;;5117622;27;20055;-47
2023/06/04 03:37:00;;;;;;;0.13;0.13;;;;;;;;;;5117288;27;20129;-47
2023/06/04 03:39:26;;;;;;;0.20;0.20;;;;;;;;;;5117492;28;20058;-47
2023/06/04 03:41:51;;;;;;;0.10;0.10;;;;;;;;;;5116939;28;20475;-47
2023/06/04 03:44:17;;;;;;;0.20;0.20;;;;;;;;;;5098717;28;20556;-47
2023/06/04 03:46:43;;;;;;;0.20;0.20;;;;;;;;;;5116545;27;20093;-47
2023/06/04 03:49:09;;;;;;;0.10;0.10;;;;;;;;;;5117498;28;20062;-47
2023/06/04 03:51:36;;;;;;;0.13;0.13;;;;;;;;;;5115919;28;20070;-47
2023/06/04 03:54:02;;;;;;;0.20;0.20;;;;;;;;;;5117636;27;20075;-47
2023/06/04 03:56:28;;;;;;;0.20;0.20;;;;;;;;;;5121057;27;20099;-47
2023/06/04 03:58:53;;;;;;;0.20;0.20;;;;;;;;;;5138349;27;20058;-47
2023/06/04 04:01:19;;;;;;;0.17;0.17;;;;;;;;;;5105292;27;20079;-46
2023/06/04 04:03:48;;;;;;;0.20;0.20;;;;;;;;;;5096939;28;20048;-46
2023/06/04 04:06:13;;;;;;;0.10;0.10;;;;;;;;;;5096958;28;20387;-47
2023/06/04 04:08:42;;;;;;;0.10;0.10;;;;;;;;;;5096815;28;20052;-47
2023/06/04 04:11:07;;;;;;;;;;;;;;;;;;5113169;28;20068;-47
2023/06/04 04:13:33;;;;;;;0.20;0.20;;;;;;;;;;5096669;28;20338;-47
2023/06/04 04:15:58;;;;;;;0.10;0.10;;;;;;;;;;5096533;28;20279;-47
2023/06/04 04:18:24;;;;;;;0.20;0.20;;;;;;;;;;5097141;28;20280;-47
2023/06/04 04:20:49;;;;;;;0.20;0.20;;;;;;;;;;5096962;28;20332;-47
2023/06/04 04:23:16;;;;;;;0.10;0.10;;;;;;;;;;5095719;28;20439;-46
2023/06/04 04:25:44;;;;;;;0.10;0.10;;;;;;;;;;5096489;28;20092;-47
2023/06/04 04:28:11;;;;;;;0.20;0.20;;;;;;;;;;5096619;28;20044;-49
2023/06/04 04:30:37;;;;;;;0.10;0.10;;;;;;;;;;5078568;28;20067;-47
2023/06/04 04:33:04;;;;;;;0.10;0.10;;;;;;;;;;5098360;27;20071;-48
2023/06/04 04:35:32;;;;;;;0.20;0.20;;;;;;;;;;5117010;27;20035;-47
2023/06/04 04:37:58;;;;;;;0.10;0.10;;;;;;;;;;5116721;27;20334;-48
2023/06/04 04:40:24;;;;;;;0.20;0.20;;;;;;;;;;5108662;27;20526;-48
2023/06/04 04:42:49;;;;;;;0.17;0.17;;;;;;;;;;5096338;28;20086;-47
2023/06/04 04:45:15;;;;;;;0.10;0.10;;;;;;;;;;5095902;28;20044;-47
2023/06/04 04:47:40;;;;;;;0.20;0.20;;;;;;;;;;5096276;28;20051;-46
2023/06/04 04:50:06;;;;;;;0.20;0.20;;;;;;;;;;5096090;28;20043;-47
2023/06/04 04:52:32;;;;;;;0.17;0.17;;;;;;;;;;5100180;28;20399;-47
2023/06/04 04:54:57;;;;;;;0.20;0.20;;;;;;;;;;5116332;28;20046;-47
2023/06/04 04:57:23;;;;;;;0.20;0.20;;;;;;;;;;5127675;27;20082;-47
2023/06/04 04:59:49;;;;;;;0.20;0.20;;;;;;;;;;5129488;27;20050;-47
2023/06/04 05:02:15;;;;;;;0.20;0.20;;;;;;;;;;5078133;28;20127;-47
2023/06/04 05:04:40;;;;;;;0.10;0.10;;;;;;;;;;5096151;28;20445;-47
2023/06/04 05:07:06;;;;;;;0.43;0.30;;;;;;;;;;5095683;28;20058;-47
2023/06/04 05:09:31;;;;;;;0.20;0.20;;;;;;;;;;5095613;28;20055;-46
2023/06/04 05:11:57;;;;;;;0.20;0.20;;;;;;;;;;5096025;28;20047;-47
2023/06/04 05:14:23;;;;;;;0.20;0.20;;;;;;;;;;5095530;28;20063;-47
2023/06/04 05:16:48;;;;;;;0.20;0.20;;;;;;;;;;5095586;28;20112;-47
2023/06/04 05:19:16;;;;;;;0.20;0.20;;;;;;;;;;5095906;28;20047;-46
2023/06/04 05:21:43;;;;;;;0.20;0.20;;;;;;;;;;5076917;28;20479;-48
2023/06/04 05:24:09;;;;;;;0.20;0.20;;;;;;;;;;5095897;28;20043;-46
2023/06/04 05:26:34;;;;;;;0.20;0.20;;;;;;;;;;5095372;28;20071;-47
2023/06/04 05:29:00;;;;;;;0.20;0.20;;;;;;;;;;5094703;28;20116;-48
2023/06/04 05:31:27;;;;;;;0.13;0.13;;;;;;;;;;5095094;27;20108;-48
2023/06/04 05:33:53;;;;;;;0.20;0.20;;;;;;;;;;5095600;28;20192;-46
2023/06/04 05:36:19;;;;;;;0.20;0.20;;;;;;;;;;5110879;28;20104;-48
2023/06/04 05:38:44;;;;;;;0.20;0.20;;;;;;;;;;5096911;28;20077;-47
2023/06/04 05:41:11;;;;;;;0.20;0.20;;;;;;;;;;5115201;28;20105;-47
2023/06/04 05:43:36;;;;;;;0.20;0.20;;;;;;;;;;5115310;28;20070;-46
2023/06/04 05:46:02;;;;;;;0.20;0.20;;;;;;;;;;5115821;28;20043;-47
2023/06/04 05:48:27;;;;;;;0.20;0.20;;;;;;;;;;5115623;28;20209;-47
2023/06/04 05:50:53;;;;;;;0.20;0.20;;;;;;;;;;5115172;28;20062;-47
2023/06/04 05:53:19;;;;;;;0.20;0.20;;;;;;;;;;5115901;28;20051;-46
2023/06/04 05:55:44;;;;;;;0.20;0.20;;;;;;;;;;5115292;28;20508;-48
2023/06/04 05:58:10;;;;;;;0.10;0.10;;;;;;;;;;5115873;27;20039;-47
2023/06/04 06:00:35;;;;;;;0.20;0.20;;;;;;;;;;5115296;28;20296;-47
2023/06/04 06:03:01;;;;;;;0.13;0.13;;;;;;;;;;5116062;28;20047;-48
2023/06/04 06:05:27;;;;;;;0.20;0.20;;;;;;;;;;5116049;28;20431;-46
2023/06/04 06:07:52;;;;;;;0.20;0.20;;;;;;;;;;5115592;28;20656;-47
2023/06/04 06:10:19;;;;;;;0.20;0.20;;;;;;;;;;5115950;27;20456;-47
2023/06/04 06:12:44;;;;;;;0.20;0.20;;;;;;;;;;5119008;28;20554;-47
2023/06/04 06:15:10;;;;;;;0.10;0.10;;;;;;;;;;5119822;28;20054;-47
2023/06/04 06:17:37;;;;;;;0.20;0.20;;;;;;;;;;5119361;28;20054;-49
2023/06/04 06:20:07;;;;;;;0.20;0.20;;;;;;;;;;5119051;28;20051;-46
2023/06/04 06:22:33;;;;;;;0.20;0.20;;;;;;;;;;5118839;27;20569;-46
2023/06/04 06:24:59;;;;;;;0.20;0.20;;;;;;;;;;5119306;28;20163;-48
2023/06/04 06:27:25;;;;;;;0.20;0.20;;;;;;;;;;5119093;28;20430;-48
2023/06/04 06:29:50;;;;;;;0.20;0.20;;;;;;;;;;5118593;28;20126;-46
2023/06/04 06:32:16;;;;;;;0.20;0.20;;;;;;;;;;5126593;27;20050;-47
2023/06/04 06:34:41;;;;;;;0.20;0.20;;;;;;;;;;5139568;27;20051;-48
2023/06/04 06:37:07;;;;;;;0.20;0.20;;;;;;;;;;5130833;27;20465;-47
2023/06/04 06:39:33;;;;;;;0.20;0.20;;;;;;;;;;5117374;27;20487;-46
2023/06/04 06:41:58;;;;;;;0.20;0.20;;;;;;;;;;5098269;28;20044;-48
2023/06/04 06:44:24;;;;;;;0.15;0.15;;;;;;;;;;5098024;28;20043;-46
2023/06/04 06:46:49;;;;;;;0.20;0.20;;;;;;;;;;5098738;28;20150;-47
2023/06/04 06:49:15;;;;;;;0.10;0.10;;;;;;;;;;5098382;28;20134;-47
2023/06/04 06:51:41;;;;;;;0.20;0.20;;;;;;;;;;5098131;28;20138;-47
2023/06/04 06:54:08;;;;;;;0.20;0.20;;;;;;;;;;5098335;28;20044;-48
2023/06/04 06:56:34;;;;;;;0.10;0.10;;;;;;;;;;5107293;27;20163;-47
2023/06/04 06:59:00;;;;;;;0.50;0.50;;;;;;;;;;5118643;28;20050;-47
2023/06/04 07:01:25;;;;;;;0.20;0.20;;;;;;;;;;5100837;28;20116;-47
2023/06/04 07:03:51;;;;;;;0.20;0.20;;;;;;;;;;5097843;28;20456;-47
2023/06/04 07:06:16;;;;;;;0.20;0.20;;;;;;;;;;5098276;28;20226;-47
2023/06/04 07:08:42;;;;;;;0.15;0.15;;;;;;;;;;5096743;28;20675;-47
2023/06/04 07:11:11;;;;;;;0.10;0.10;;;;;;;;;;5097442;28;20302;-47
2023/06/04 07:13:38;;;;;;;0.20;0.20;;;;;;;;;;5097560;28;20043;-48
2023/06/04 07:16:03;;;;;;;0.20;0.20;;;;;;;;;;5098064;28;20287;-45
2023/06/04 07:18:29;;;;;;;0.20;0.20;;;;;;;;;;5098277;28;20279;-50
2023/06/04 07:20:54;;;;;;;0.20;0.20;;;;;;;;;;5097335;28;20074;-47
2023/06/04 07:23:23;;;;;;;;;;;;;;;;;;5098023;28;20541;-48
2023/06/04 07:25:48;;;;;;;0.20;0.20;;;;;;;;;;5097632;28;20566;-47
2023/06/04 07:28:14;;;;;;;0.10;0.10;;;;;;;;;;5097920;28;20215;-47
2023/06/04 07:30:40;;;;;;;0.17;0.17;;;;;;;;;;5106635;28;20087;-47
2023/06/04 07:33:06;;;;;;;0.30;0.30;;;;;;;;;;5099174;27;20044;-48
2023/06/04 07:35:31;;;;;;;0.20;0.20;;;;;;;;;;5097346;28;20507;-46
2023/06/04 07:37:57;;;;;;;0.20;0.20;;;;;;;;;;5097047;28;20159;-47
2023/06/04 07:40:22;;;;;;;0.20;0.20;;;;;;;;;;5116639;28;20039;-47
2023/06/04 07:42:48;;;;;;;0.20;0.20;;;;;;;;;;5117469;28;20050;-47
2023/06/04 07:45:15;;;;;;;0.20;0.20;;;;;;;;;;5117708;28;20532;-49
2023/06/04 07:47:40;;;;;;;0.20;0.20;;;;;;;;;;5118528;28;20047;-48
2023/06/04 07:50:06;;;;;;;0.20;0.20;;;;;;;;;;5099275;28;20165;-47
2023/06/04 07:52:32;;;;;;;0.20;0.20;;;;;;;;;;5099353;28;20082;-48
2023/06/04 07:54:59;;;;;;;0.20;0.20;;;;;;;;;;5099330;28;20067;-47
2023/06/04 07:57:24;;;;;;;0.20;0.20;;;;;;;;;;5099386;28;20253;-47
2023/06/04 07:59:51;;;;;;;0.20;0.20;;;;;;;;;;5117047;28;20435;-47
2023/06/04 08:02:17;;;;;;;0.10;0.10;;;;;;;;;;5117783;28;20484;-47
2023/06/04 08:04:43;;;;;;;0.10;0.10;;;;;;;;;;5117709;28;20361;-46
2023/06/04 08:07:09;;;;;;;0.20;0.20;;;;;;;;;;5117445;28;20078;-47
2023/06/04 08:09:35;;;;;;;0.10;0.10;;;;;;;;;;5117861;28;20419;-46
2023/06/04 08:12:00;;;;;;;0.20;0.20;;;;;;;;;;5117194;28;20410;-46
2023/06/04 08:14:27;;;;;;;0.20;0.20;;;;;;;;;;5117504;28;20371;-48
2023/06/04 08:16:53;;;;;;;0.20;0.20;;;;;;;;;;5117681;28;20082;-46
2023/06/04 08:19:19;;;;;;;0.10;0.10;;;;;;;;;;5117932;28;20494;-46
2023/06/04 08:21:45;;;;;;;0.20;0.20;;;;;;;;;;5117598;27;20043;-47
2023/06/04 08:24:11;;;;;;;0.10;0.10;;;;;;;;;;5117370;28;20054;-46
2023/06/04 08:26:36;;;;;;;0.20;0.20;;;;;;;;;;5117391;28;20454;-47
2023/06/04 08:29:03;;;;;;;0.13;0.13;;;;;;;;;;5117721;28;20391;-46
2023/06/04 08:31:29;;;;;;;0.20;0.20;;;;;;;;;;5103894;27;20491;-47
2023/06/04 08:33:55;;;;;;;0.20;0.20;;;;;;;;;;5118722;27;20046;-47
2023/06/04 08:36:20;;;;;;;0.20;0.20;;;;;;;;;;5138065;27;20047;-47
2023/06/04 08:38:50;;;;;;;0.20;0.20;;;;;;;;;;5137444;27;20051;-48
2023/06/04 08:41:23;;;;;;;0.20;0.20;;;;;;;;;;5118395;27;20091;-47
2023/06/04 08:43:49;;;;;;;0.20;0.20;;;;;;;;;;5116878;27;20040;-46
2023/06/04 08:46:15;;;;;;;0.20;0.20;;;;;;;;;;5116588;27;20046;-46
2023/06/04 08:48:41;;;;;;;0.20;0.20;;;;;;;;;;5117459;27;20395;-47
2023/06/04 08:51:08;;;;;;;0.20;0.20;;;;;;;;;;5102830;27;20070;-46
2023/06/04 08:53:34;;;;;;;0.10;0.10;;;;;;;;;;5096783;28;20039;-46
2023/06/04 08:56:00;;;;;;;0.20;0.20;;;;;;;;;;5096980;28;20059;-47
2023/06/04 08:58:27;;;;;;;0.20;0.20;;;;;;;;;;5096516;28;20051;-46
2023/06/04 09:00:53;;;;;;;0.20;0.20;;;;;;;;;;5110329;28;20094;-47
2023/06/04 09:03:20;;;;;;;0.20;0.20;;;;;;;;;;5117255;28;20487;-47
2023/06/04 09:05:47;;;;;;;0.20;0.20;;;;;;;;;;5117284;28;20562;-46
2023/06/04 09:08:14;;;;;;;0.20;0.20;;;;;;;;;;5116904;28;20115;-48
2023/06/04 09:10:39;;;;;;;0.20;0.20;;;;;;;;;;5117150;28;20351;-48
2023/06/04 09:13:06;;;;;;;0.20;0.20;;;;;;;;;;5117003;28;20090;-47
2023/06/04 09:15:32;;;;;;;0.20;0.20;;;;;;;;;;5116606;28;20858;-46
2023/06/04 09:17:57;;;;;;;0.10;0.10;;;;;;;;;;5116836;28;20773;-46
2023/06/04 09:20:23;;;;;;;0.20;0.20;;;;;;;;;;5116949;28;20099;-46
2023/06/04 09:22:49;;;;;;;0.20;0.20;;;;;;;;;;5098748;28;20054;-46
2023/06/04 09:25:24;;;;;;;0.20;0.20;;;;;;;;;;5116447;28;20043;-47
2023/06/04 09:27:50;;;;;;;0.20;0.20;;;;;;;;;;5116008;28;20078;-47
2023/06/04 09:30:16;;;;;;;0.20;0.20;;;;;;;;;;5115407;27;20046;-46
2023/06/04 09:32:41;;;;;;;0.20;0.20;;;;;;;;;;5131853;27;20051;-47
2023/06/04 09:35:09;;;;;;;0.20;0.20;;;;;;;;;;5118549;27;20077;-48
2023/06/04 09:37:35;;;;;;;0.10;0.10;;;;;;;;;;5118426;27;20778;-47
2023/06/04 09:40:01;;;;;;;0.20;0.20;;;;;;;;;;5126204;27;20530;-46
2023/06/04 09:42:26;;;;;;;0.20;0.20;;;;;;;;;;5103146;28;20332;-46
2023/06/04 09:44:52;;;;;;;0.20;0.20;;;;;;;;;;5116724;27;20240;-47
2023/06/04 09:47:18;;;;;;;0.20;0.20;;;;;;;;;;5120004;28;20054;-47
2023/06/04 09:49:44;;;;;;;0.20;0.20;;;;;;;;;;5116872;27;20043;-48
2023/06/04 09:52:09;;;;;;;0.20;0.20;;;;;;;;;;5081083;28;20131;-46
2023/06/04 09:54:36;;;;;;;0.20;0.20;;;;;;;;;;5099755;28;20164;-47
2023/06/04 09:57:02;;;;;;;0.20;0.20;;;;;;;;;;5099345;28;20043;-46
2023/06/04 09:59:28;;;;;;;0.20;0.20;;;;;;;;;;5098866;28;20150;-47
2023/06/04 10:01:55;;;;;;;0.20;0.20;;;;;;;;;;5107195;28;20078;-47
2023/06/04 10:04:20;;;;;;;0.20;0.20;;;;;;;;;;5120006;28;20146;-47
2023/06/04 10:06:48;;;;;;;0.20;0.20;;;;;;;;;;5119481;27;20050;-47
2023/06/04 10:09:14;;;;;;;0.20;0.20;;;;;;;;;;5119637;27;20043;-47
2023/06/04 10:11:41;;;;;;;0.20;0.20;;;;;;;;;;5099963;27;20058;-48
2023/06/04 10:14:23;;;;;;;0.20;0.20;;;;;;;;;;5099250;28;20056;-48
2023/06/04 10:16:50;;;;;;;0.20;0.20;;;;;;;;;;5081055;28;20047;-47
2023/06/04 10:19:17;;;;;;;0.20;0.20;;;;;;;;;;5098784;28;20052;-47
2023/06/04 10:21:43;;;;;;;0.20;0.20;;;;;;;;;;5098528;28;20051;-46
2023/06/04 10:24:09;;;;;;;0.20;0.20;;;;;;;;;;5098478;28;20047;-47
2023/06/04 10:26:35;;;;;;;0.20;0.20;;;;;;;;;;5080723;28;20087;-46
2023/06/04 10:29:01;;;;;;;0.20;0.20;;;;;;;;;;5098480;27;20132;-47
2023/06/04 10:31:27;;;;;;;0.20;0.20;;;;;;;;;;5090350;27;20133;-46
2023/06/04 10:33:53;;;;;;;0.20;0.20;;;;;;;;;;5140122;27;20061;-47
2023/06/04 10:36:20;;;;;;;0.20;0.20;;;;;;;;;;5140332;27;20057;-46
2023/06/04 10:38:46;;;;;;;0.20;0.20;;;;;;;;;;5139059;27;20050;-46
2023/06/04 10:41:15;;;;;;;0.20;0.20;;;;;;;;;;5090122;28;20051;-47
2023/06/04 10:43:40;;;;;;;;;;;;;;;;;;5101170;28;20047;-47
2023/06/04 10:46:13;;;;;;;0.20;0.20;;;;;;;;;;5119005;28;19927;-47
2023/06/04 10:48:54;;;;;;;0.20;0.20;;;;;;;;;;5118905;27;20437;-47
2023/06/04 10:51:38;;;;;;;0.20;0.20;;;;;;;;;;5102227;27;20074;-47
2023/06/04 10:54:04;;;;;;;0.20;0.20;;;;;;;;;;5098496;28;20048;-46
2023/06/04 10:56:32;;;;;;;0.20;0.20;;;;;;;;;;5080027;28;20059;-48
2023/06/04 10:58:57;;;;;;;0.10;0.10;;;;;;;;;;5097903;28;20075;-47
2023/06/04 11:01:24;;;;;;;0.20;0.20;;;;;;;;;;5098084;28;20460;-48
2023/06/04 11:03:50;;;;;;;0.20;0.20;;;;;;;;;;5107449;28;20392;-47
2023/06/04 11:06:17;;;;;;;0.20;0.20;;;;;;;;;;5119330;28;20067;-47
2023/06/04 11:08:42;;;;;;;0.20;0.20;;;;;;;;;;5100443;28;20062;-46
2023/06/04 11:11:12;;;;;;;0.20;0.20;;;;;;;;;;5118538;28;20039;-46
2023/06/04 11:13:38;;;;;;;0.20;0.20;;;;;;;;;;5118360;28;20085;-47
2023/06/04 11:16:13;;;;;;;0.20;0.20;;;;;;;;;;5119100;28;20586;-47
2023/06/04 11:18:39;;;;;;;0.20;0.20;;;;;;;;;;5118782;28;20483;-47
2023/06/04 11:21:05;;;;;;;0.20;0.20;;;;;;;;;;5117893;28;20103;-47
2023/06/04 11:23:32;;;;;;;0.20;0.20;;;;;;;;;;5118329;27;20517;-47
2023/06/04 11:25:58;;;;;;;0.20;0.20;;;;;;;;;;5118818;28;20483;-47
2023/06/04 11:28:24;;;;;;;0.20;0.20;;;;;;;;;;5119801;28;20108;-46
2023/06/04 11:30:58;;;;;;;0.20;0.20;;;;;;;;;;5114047;27;20047;-48
2023/06/04 11:33:24;;;;;;;0.20;0.20;;;;;;;;;;5100660;28;20047;-47
2023/06/04 11:35:49;;;;;;;0.20;0.20;;;;;;;;;;5119024;28;20467;-46
2023/06/04 11:38:15;;;;;;;0.20;0.20;;;;;;;;;;5118932;28;20422;-47
2023/06/04 11:40:42;;;;;;;0.20;0.20;;;;;;;;;;5118359;28;20071;-46
2023/06/04 11:43:10;;;;;;;0.20;0.20;;;;;;;;;;5118097;28;20054;-47
2023/06/04 11:45:36;;;;;;;0.20;0.20;;;;;;;;;;5117983;28;20498;-47
2023/06/04 11:48:03;;;;;;;0.20;0.20;;;;;;;;;;5100103;28;20047;-46
2023/06/04 11:50:29;;;;;;;0.10;0.10;;;;;;;;;;5118327;28;20046;-47
2023/06/04 11:52:55;;;;;;;0.20;0.20;;;;;;;;;;5118212;28;20556;-47
2023/06/04 11:55:21;;;;;;;0.30;0.30;;;;;;;;;;5118605;28;20094;-47
2023/06/04 11:57:47;;;;;;;0.20;0.20;;;;;;;;;;5118406;28;20235;-47
2023/06/04 12:00:14;;;;;;;0.20;0.20;;;;;;;;;;5099779;28;20474;-47
2023/06/04 12:02:48;;;;;;;0.20;0.20;;;;;;;;;;5117852;28;20478;-46
2023/06/04 12:05:14;;;;;;;0.20;0.20;;;;;;;;;;5116707;28;20039;-46
2023/06/04 12:07:41;;;;;;;0.20;0.20;;;;;;;;;;5116858;27;20047;-47
2023/06/04 12:10:08;;;;;;;0.20;0.20;;;;;;;;;;5103995;28;20040;-46
2023/06/04 12:12:35;;;;;;;0.10;0.10;;;;;;;;;;5117863;28;20124;-47
2023/06/04 12:15:00;;;;;;;0.20;0.20;;;;;;;;;;5099638;28;20058;-46
2023/06/04 12:17:26;;;;;;;0.20;0.20;;;;;;;;;;5099306;28;20170;-47
2023/06/04 12:19:52;;;;;;;0.20;0.20;;;;;;;;;;5117366;28;20134;-46
2023/06/04 12:22:18;;;;;;;0.20;0.20;;;;;;;;;;5117591;27;20101;-47
2023/06/04 12:24:48;;;;;;;0.20;0.20;;;;;;;;;;5117427;28;20185;-47
2023/06/04 12:27:15;;;;;;;0.20;0.20;;;;;;;;;;5117055;28;20071;-47
2023/06/04 12:29:40;;;;;;;0.20;0.20;;;;;;;;;;5110540;27;20451;-46
2023/06/04 12:32:08;;;;;;;0.20;0.20;;;;;;;;;;5097354;28;20047;-47
2023/06/04 12:34:38;;;;;;;0.20;0.20;;;;;;;;;;5082632;28;20047;-47
2023/06/04 12:37:05;;;;;;;0.20;0.20;;;;;;;;;;5098563;28;20050;-46
2023/06/04 12:39:32;;;;;;;0.20;0.20;;;;;;;;;;5117091;28;20051;-47
2023/06/04 12:41:57;;;;;;;0.20;0.20;;;;;;;;;;5117655;28;20475;-47
2023/06/04 12:44:23;;;;;;;0.20;0.20;;;;;;;;;;5117246;28;20053;-47
2023/06/04 12:46:48;;;;;;;0.20;0.20;;;;;;;;;;5116892;28;20047;-46
2023/06/04 12:49:14;;;;;;;0.20;0.20;;;;;;;;;;5117072;28;20036;-47
2023/06/04 12:51:39;;;;;;;0.20;0.20;;;;;;;;;;5117745;28;20542;-47
2023/06/04 12:54:05;;;;;;;0.20;0.20;;;;;;;;;;5117254;28;20051;-47
2023/06/04 12:56:30;;;;;;;0.20;0.20;;;;;;;;;;5117387;28;20047;-46
2023/06/04 12:58:56;;;;;;;0.20;0.20;;;;;;;;;;5116604;28;20146;-47
2023/06/04 13:01:22;;;;;;;0.20;0.20;;;;;;;;;;5098210;28;20049;-46
2023/06/04 13:03:47;;;;;;;0.10;0.10;;;;;;;;;;5117340;28;20202;-49
2023/06/04 13:06:13;;;;;;;0.20;0.20;;;;;;;;;;5117100;28;20048;-46
2023/06/04 13:08:40;;;;;;;0.20;0.20;;;;;;;;;;5116870;28;20134;-48
2023/06/04 13:11:06;;;;;;;0.20;0.20;;;;;;;;;;5116395;28;20055;-47
2023/06/04 13:13:32;;;;;;;0.20;0.20;;;;;;;;;;5116990;28;20439;-47
2023/06/04 13:15:57;;;;;;;0.20;0.20;;;;;;;;;;5116813;28;20472;-47
2023/06/04 13:18:23;;;;;;;0.20;0.20;;;;;;;;;;5117187;28;20351;-46
2023/06/04 13:20:49;;;;;;;0.10;0.10;;;;;;;;;;5097967;28;20520;-47
2023/06/04 13:23:15;;;;;;;0.20;0.20;;;;;;;;;;5098997;28;20051;-46
2023/06/04 13:25:40;;;;;;;0.20;0.20;;;;;;;;;;5098730;28;20502;-47
2023/06/04 13:28:07;;;;;;;0.20;0.20;;;;;;;;;;5115185;27;20039;-47
2023/06/04 13:30:34;;;;;;;0.20;0.20;;;;;;;;;;5113370;28;20043;-47
2023/06/04 13:33:00;;;;;;;0.20;0.20;;;;;;;;;;5117082;28;20079;-47
2023/06/04 13:35:26;;;;;;;0.20;0.20;;;;;;;;;;5116803;28;20514;-46
2023/06/04 13:37:51;;;;;;;0.20;0.20;;;;;;;;;;5116206;28;20168;-46
2023/06/04 13:40:17;;;;;;;0.20;0.20;;;;;;;;;;5097627;28;20284;-47
2023/06/04 13:42:43;;;;;;;0.20;0.20;;;;;;;;;;5116005;28;20050;-48
2023/06/04 13:45:09;;;;;;;0.20;0.20;;;;;;;;;;5116546;28;20118;-47
2023/06/04 13:47:35;;;;;;;0.20;0.20;;;;;;;;;;5116574;28;20075;-47
2023/06/04 13:50:01;;;;;;;0.20;0.20;;;;;;;;;;5115676;28;20423;-47
2023/06/04 13:52:28;;;;;;;0.20;0.20;;;;;;;;;;5116831;28;20058;-46
2023/06/04 13:54:54;;;;;;;0.10;0.10;;;;;;;;;;5116943;28;20043;-46
2023/06/04 13:57:20;;;;;;;0.20;0.20;;;;;;;;;;5116109;28;20291;-47
2023/06/04 13:59:45;;;;;;;0.17;0.17;;;;;;;;;;5115781;28;20467;-49
2023/06/04 14:02:11;;;;;;;0.20;0.20;;;;;;;;;;5116068;28;20263;-46
2023/06/04 14:04:36;;;;;;;0.20;0.20;;;;;;;;;;5116322;28;20134;-46
2023/06/04 14:07:02;;;;;;;0.20;0.20;;;;;;;;;;5115907;28;20046;-47
2023/06/04 14:09:27;;;;;;;0.20;0.20;;;;;;;;;;5115705;28;20039;-48
2023/06/04 14:11:54;;;;;;;0.20;0.20;;;;;;;;;;5116055;28;20410;-48
2023/06/04 14:14:20;;;;;;;0.20;0.20;;;;;;;;;;5097541;28;20055;-47
2023/06/04 14:16:46;;;;;;;0.20;0.20;;;;;;;;;;5097867;28;20047;-46
2023/06/04 14:19:12;;;;;;;0.10;0.10;;;;;;;;;;5116057;28;20054;-48
2023/06/04 14:21:37;;;;;;;0.20;0.20;;;;;;;;;;5115425;27;20128;-46
2023/06/04 14:24:03;;;;;;;0.20;0.20;;;;;;;;;;5097980;28;20044;-48
2023/06/04 14:26:29;;;;;;;0.20;0.20;;;;;;;;;;5097630;28;20047;-47
2023/06/04 14:28:55;;;;;;;0.20;0.20;;;;;;;;;;5096994;27;20100;-47
2023/06/04 14:31:20;;;;;;;0.10;0.10;;;;;;;;;;5112647;27;20095;-47
2023/06/04 14:33:46;;;;;;;0.20;0.20;;;;;;;;;;5119271;28;20047;-46
2023/06/04 14:36:12;;;;;;;0.30;0.30;;;;;;;;;;5119821;28;20108;-46
2023/06/04 14:38:37;;;;;;;0.20;0.20;;;;;;;;;;5118769;28;20085;-46
2023/06/04 14:41:03;;;;;;;0.20;0.20;;;;;;;;;;5106887;27;20160;-46